Portada
METAR-TAF:

METAR-TAF

Aeroports :

Aeroport d'Oslo-Gardermoen

Oslo, Noruega

latitud: 60-12N, longitud: 011-05E, altitud: 208 m

Observació

L'informe es va fer fa 31 minuts, a les 00:20 UTC
Vent 3 kt del Oest/Nord-Oest, variant entre Oest/Sud-Oest i Nord
Temperatura 10°C
Humitat 66%
Pressió 1009 hPa
Visibilitat 10 km o més
sense núvols per sota de 1500 mi sense presència de cumulonimbus.

METAR: ENGM 200020Z 30003KT 240V350 CAVOK 10/04 Q1009

Hora: 02:51 (00:51 UTC)

Pronòstic

Pronòstic vàlid del 20 a les 00 UTC al 20 a les 24 UTC
Vent 8 kt del Nord
Visibilitat 10 km o més
sense núvols per sota de 1500 mi sense presència de cumulonimbus.

TAF: ENGM 2000/2024 36008KT CAVOK

Observacions i pronòstics meteorològics de més de 4000 aeroports (METAR i TAF).

Les estacions disponibles són els punts grocs i vermells al mapa.

Posi el ratolí al punt desitjat per veure el nom de l'estació.

Feu clic per veure les observacions i els pronòstics meteorològics.

Per canviar el mapa: feu clic els botons verds amb una creu de color negre per apropar; al botó verd amb un guió per allunyar la imatge; o en les fletxes verdes per a mapes adjacents.


METAR-TAF: